createdAt,value
2023-09-27T00:04:30.712Z,11.87
2023-09-27T00:09:36.328Z,11.93
2023-09-27T00:14:44.119Z,12.53
2023-09-27T00:19:49.676Z,13.53
2023-09-27T00:24:55.266Z,12.57
2023-09-27T00:30:03.356Z,11.60
2023-09-27T00:35:16.238Z,11.23
2023-09-27T00:40:24.049Z,12.57
2023-09-27T00:45:32.031Z,12.97
2023-09-27T00:50:37.636Z,12.17
2023-09-27T00:55:42.880Z,12.93
2023-09-27T01:00:53.734Z,13.40
2023-09-27T01:05:59.223Z,12.40
2023-09-27T01:11:05.762Z,13.57
2023-09-27T01:16:13.709Z,12.23
2023-09-27T01:21:20.812Z,13.73
2023-09-27T01:26:31.100Z,12.60
2023-09-27T01:31:36.841Z,12.97
2023-09-27T01:36:42.210Z,11.43
2023-09-27T01:41:50.346Z,11.37
2023-09-27T01:46:56.137Z,11.43
2023-09-27T01:52:01.781Z,12.00
2023-09-27T01:57:10.050Z,11.90
2023-09-27T02:02:15.396Z,10.67
2023-09-27T02:07:20.695Z,11.37
2023-09-27T02:12:28.660Z,10.77
2023-09-27T02:17:34.168Z,12.03
2023-09-27T02:22:39.794Z,10.07
2023-09-27T02:27:48.153Z,11.20
2023-09-27T02:32:54.239Z,11.13
2023-09-27T02:37:59.536Z,10.47
2023-09-27T02:43:07.586Z,10.20
2023-09-27T02:48:12.882Z,11.20
2023-09-27T02:53:18.243Z,11.13
2023-09-27T02:58:34.648Z,10.67
2023-09-27T03:03:39.900Z,9.30
2023-09-27T03:08:45.738Z,9.90
2023-09-27T03:13:53.593Z,10.80
2023-09-27T03:18:59.940Z,10.43
2023-09-27T03:24:06.955Z,10.23
2023-09-27T03:29:19.817Z,10.57
2023-09-27T03:34:32.953Z,10.37
2023-09-27T03:39:38.787Z,9.97
2023-09-27T03:44:48.794Z,9.10
2023-09-27T03:49:56.238Z,10.97
2023-09-27T03:55:02.841Z,9.97
2023-09-27T04:00:18.482Z,10.17
2023-09-27T04:05:28.669Z,13.30
2023-09-27T04:10:35.428Z,11.40
2023-09-27T04:15:43.391Z,11.73
2023-09-27T04:20:48.831Z,11.50
2023-09-27T04:25:54.012Z,11.40
2023-09-27T04:31:02.492Z,10.50
2023-09-27T04:36:12.490Z,10.47
2023-09-27T04:41:19.422Z,11.67
2023-09-27T04:46:31.077Z,11.67
2023-09-27T04:51:37.277Z,12.70
2023-09-27T04:56:42.526Z,12.53
2023-09-27T05:01:50.342Z,11.30
2023-09-27T05:06:55.878Z,10.73
2023-09-27T05:12:01.728Z,11.63
2023-09-27T05:17:11.037Z,11.63
2023-09-27T05:22:20.595Z,12.00
2023-09-27T05:27:25.833Z,11.47
2023-09-27T05:32:36.745Z,13.03
2023-09-27T05:37:43.053Z,13.90
2023-09-27T05:42:48.508Z,12.10
2023-09-27T05:47:57.854Z,12.77
2023-09-27T05:53:06.569Z,13.87
2023-09-27T05:58:11.971Z,10.87
2023-09-27T06:03:19.803Z,10.27
2023-09-27T06:08:30.345Z,10.43
2023-09-27T06:13:38.833Z,9.40
2023-09-27T06:18:49.309Z,9.60
2023-09-27T06:23:54.476Z,9.03
2023-09-27T06:28:59.672Z,9.07
2023-09-27T06:34:10.300Z,8.33
2023-09-27T06:39:20.982Z,8.90
2023-09-27T06:44:26.703Z,8.40
2023-09-27T06:49:37.478Z,9.57
2023-09-27T06:54:46.822Z,8.73
2023-09-27T06:59:53.415Z,6.35
2023-09-27T07:05:10.746Z,6.68
2023-09-27T07:10:18.276Z,6.78
2023-09-27T07:15:25.194Z,6.88
2023-09-27T07:20:34.660Z,6.97
2023-09-27T07:25:39.984Z,6.70
2023-09-27T07:30:46.604Z,5.90
2023-09-27T07:35:54.421Z,6.50
2023-09-27T07:41:02.966Z,6.25
2023-09-27T07:46:09.633Z,5.93
2023-09-27T07:51:20.256Z,5.78
2023-09-27T07:56:27.748Z,6.20
2023-09-27T08:01:34.766Z,6.47
2023-09-27T08:06:46.869Z,6.38
2023-09-27T08:11:52.287Z,6.13
2023-09-27T08:16:57.617Z,5.78
2023-09-27T08:22:07.459Z,6.70
2023-09-27T08:27:13.784Z,6.28
2023-09-27T08:32:19.138Z,6.47
2023-09-27T08:37:27.013Z,6.63
2023-09-27T08:42:36.034Z,6.20
2023-09-27T08:47:47.990Z,6.40
2023-09-27T08:52:57.489Z,6.18
2023-09-27T08:58:03.486Z,6.15
2023-09-27T09:03:12.441Z,5.88
2023-09-27T09:08:42.299Z,6.43
2023-09-27T09:14:06.159Z,6.68
2023-09-27T09:24:36.560Z,6.70
2023-09-27T09:29:53.263Z,6.13
2023-09-27T09:34:59.650Z,6.07
2023-09-27T09:40:14.584Z,5.78
2023-09-27T09:45:21.275Z,5.70
2023-09-27T09:50:28.378Z,5.80
2023-09-27T09:56:01.137Z,6.20
2023-09-27T10:01:06.740Z,6.07
2023-09-27T10:06:12.856Z,6.13
2023-09-27T10:11:24.770Z,5.63
2023-09-27T10:16:33.409Z,5.70
2023-09-27T10:21:50.934Z,6.10
2023-09-27T10:27:03.789Z,6.10
2023-09-27T10:32:25.342Z,5.97
2023-09-27T10:38:08.501Z,5.53
2023-09-27T10:43:48.853Z,5.88
2023-09-27T10:48:57.356Z,6.07
2023-09-27T10:54:03.539Z,5.47
2023-09-27T10:59:12.661Z,5.95
2023-09-27T11:04:21.392Z,5.78
2023-09-27T11:09:28.623Z,4.82
2023-09-27T11:14:50.245Z,4.75
2023-09-27T11:19:56.786Z,4.88
2023-09-27T11:25:06.796Z,4.45
2023-09-27T11:30:28.706Z,4.43
2023-09-27T11:35:34.115Z,4.30
2023-09-27T11:40:40.151Z,4.40
2023-09-27T11:45:49.627Z,4.45
2023-09-27T11:50:55.490Z,4.13
2023-09-27T11:56:05.097Z,4.07
2023-09-27T12:01:16.870Z,5.05
2023-09-27T12:06:23.464Z,4.47
2023-09-27T12:11:29.612Z,4.78
2023-09-27T12:16:39.828Z,4.80
2023-09-27T12:21:45.517Z,4.28
2023-09-27T12:26:53.115Z,4.03
2023-09-27T12:32:03.224Z,4.60
2023-09-27T12:37:28.486Z,4.47
2023-09-27T12:42:35.074Z,4.65
2023-09-27T12:47:43.619Z,3.95
2023-09-27T12:52:51.028Z,5.03
2023-09-27T12:57:57.433Z,4.80
2023-09-27T13:03:05.918Z,4.65
2023-09-27T13:08:12.532Z,4.03
2023-09-27T13:13:18.593Z,5.10
2023-09-27T13:18:27.101Z,4.30
2023-09-27T13:23:32.895Z,4.13
2023-09-27T13:28:40.110Z,4.80
2023-09-27T13:33:58.968Z,5.20
2023-09-27T13:39:15.312Z,3.83
2023-09-27T13:44:24.504Z,4.03
2023-09-27T13:49:32.420Z,4.88
2023-09-27T13:54:37.474Z,4.53
2023-09-27T13:59:43.708Z,4.38
2023-09-27T14:04:57.023Z,4.88
2023-09-27T14:10:05.584Z,3.78
2023-09-27T14:15:13.910Z,4.63
2023-09-27T14:20:26.788Z,4.13
2023-09-27T14:25:32.521Z,5.05
2023-09-27T14:30:38.571Z,4.68
2023-09-27T14:40:55.212Z,3.85
2023-09-27T14:46:02.375Z,3.90
2023-09-27T14:51:16.535Z,4.13
2023-09-27T14:56:22.793Z,4.05
2023-09-27T15:01:28.026Z,4.20
2023-09-27T15:06:35.917Z,4.38
2023-09-27T15:11:40.948Z,4.55
2023-09-27T15:16:47.135Z,4.25
2023-09-27T15:21:56.204Z,4.38
2023-09-27T15:27:01.827Z,3.97
2023-09-27T15:32:07.216Z,4.85
2023-09-27T15:37:15.208Z,4.43
2023-09-27T15:42:25.287Z,4.45
2023-09-27T15:47:31.075Z,4.78
2023-09-27T15:52:41.831Z,4.63
2023-09-27T15:57:47.145Z,4.30
2023-09-27T16:02:52.751Z,4.32
2023-09-27T16:08:01.533Z,4.35
2023-09-27T16:13:07.480Z,5.82
2023-09-27T16:18:16.066Z,5.00
2023-09-27T16:23:24.352Z,5.33
2023-09-27T16:28:31.339Z,5.43
2023-09-27T16:33:37.571Z,5.20
2023-09-27T16:38:45.565Z,5.37
2023-09-27T16:43:51.449Z,7.10
2023-09-27T16:48:56.667Z,5.47
2023-09-27T16:54:07.679Z,5.30
2023-09-27T16:59:12.950Z,6.17
2023-09-27T17:04:18.002Z,5.70
2023-09-27T17:09:25.832Z,5.43
2023-09-27T17:14:31.050Z,5.60
2023-09-27T17:19:37.347Z,5.30
2023-09-27T17:24:45.050Z,6.43
2023-09-27T17:29:50.317Z,6.60
2023-09-27T17:34:55.546Z,7.97
2023-09-27T17:40:08.757Z,6.30
2023-09-27T17:45:16.786Z,6.53
2023-09-27T17:50:21.954Z,6.77
2023-09-27T17:55:30.034Z,6.80
2023-09-27T18:00:35.172Z,6.73
2023-09-27T18:05:41.603Z,7.10
2023-09-27T18:10:51.348Z,6.60
2023-09-27T18:15:56.563Z,6.80
2023-09-27T18:21:12.937Z,7.47
2023-09-27T18:26:23.919Z,8.07
2023-09-27T18:31:33.981Z,7.07
2023-09-27T18:36:39.520Z,7.63
2023-09-27T18:41:47.737Z,8.07
2023-09-27T18:46:54.902Z,7.70
2023-09-27T18:52:02.127Z,8.33
2023-09-27T18:57:09.969Z,8.70
2023-09-27T19:02:19.204Z,8.60
2023-09-27T19:07:27.114Z,8.70
2023-09-27T19:12:35.436Z,10.40
2023-09-27T19:17:41.126Z,10.10
2023-09-27T19:22:46.537Z,9.80
2023-09-27T19:27:54.724Z,8.93
2023-09-27T19:33:00.592Z,9.53
2023-09-27T19:38:05.950Z,9.43
2023-09-27T19:43:15.921Z,8.27
2023-09-27T19:48:23.529Z,9.53
2023-09-27T19:53:28.768Z,9.43
2023-09-27T19:58:37.045Z,10.10
2023-09-27T20:03:42.317Z,10.00
2023-09-27T20:08:49.707Z,10.80
2023-09-27T20:13:58.081Z,9.87
2023-09-27T20:19:05.464Z,10.33
2023-09-27T20:24:12.212Z,10.50
2023-09-27T20:29:20.018Z,10.13
2023-09-27T20:34:25.348Z,9.40
2023-09-27T20:39:33.841Z,10.60
2023-09-27T20:44:41.848Z,9.60
2023-09-27T20:49:47.107Z,9.67
2023-09-27T20:54:52.448Z,10.00
2023-09-27T21:00:00.588Z,10.13
2023-09-27T21:05:06.086Z,10.70
2023-09-27T21:10:13.438Z,10.20
2023-09-27T21:15:23.610Z,9.27
2023-09-27T21:20:28.766Z,8.80
2023-09-27T21:25:33.910Z,9.87
2023-09-27T21:30:41.705Z,9.63
2023-09-27T21:35:46.741Z,10.40
2023-09-27T21:40:53.111Z,9.47
2023-09-27T21:46:01.268Z,9.27
2023-09-27T21:51:06.527Z,9.47
2023-09-27T21:56:16.204Z,9.07
2023-09-27T22:01:23.941Z,8.67
2023-09-27T22:06:30.669Z,8.43
2023-09-27T22:11:40.309Z,8.13
2023-09-27T22:16:50.412Z,6.77
2023-09-27T22:21:59.471Z,6.37
2023-09-27T22:27:09.119Z,6.93
2023-09-27T22:32:16.886Z,6.03
2023-09-27T22:37:25.705Z,6.20
2023-09-27T22:42:33.154Z,6.37
2023-09-27T22:47:40.839Z,6.40
2023-09-27T22:52:49.507Z,6.73
2023-09-27T22:57:55.667Z,6.30
2023-09-27T23:03:03.569Z,6.57
2023-09-27T23:08:10.996Z,5.70
2023-09-27T23:13:31.113Z,6.97
2023-09-27T23:18:39.153Z,6.87
2023-09-27T23:23:57.506Z,7.03
2023-09-27T23:29:29.218Z,6.87
2023-09-27T23:34:38.679Z,6.90
2023-09-27T23:39:48.642Z,7.20
2023-09-27T23:44:55.203Z,6.97
2023-09-27T23:50:05.212Z,6.27
2023-09-27T23:55:12.635Z,6.60
